sensor_id;sensor_type;location;lat;lon;timestamp;P1;durP1;ratioP1;P2;durP2;ratioP2
18316;SDS011;9284;52.298;21.164;2023-01-01T00:01:25;26.35;;;13.20;;
18316;SDS011;9284;52.298;21.164;2023-01-01T00:03:57;22.90;;;13.23;;
18316;SDS011;9284;52.298;21.164;2023-01-01T00:06:29;23.70;;;13.82;;
18316;SDS011;9284;52.298;21.164;2023-01-01T00:08:59;20.85;;;12.35;;
18316;SDS011;9284;52.298;21.164;2023-01-01T00:11:45;20.75;;;12.65;;
18316;SDS011;9284;52.298;21.164;2023-01-01T00:14:16;25.42;;;12.30;;
18316;SDS011;9284;52.298;21.164;2023-01-01T00:16:46;18.42;;;9.90;;
18316;SDS011;9284;52.298;21.164;2023-01-01T00:19:17;15.60;;;9.10;;
18316;SDS011;9284;52.298;21.164;2023-01-01T00:21:45;15.73;;;8.93;;
18316;SDS011;9284;52.298;21.164;2023-01-01T00:24:16;13.57;;;7.50;;
18316;SDS011;9284;52.298;21.164;2023-01-01T00:26:48;13.50;;;7.28;;
18316;SDS011;9284;52.298;21.164;2023-01-01T00:29:17;11.35;;;6.60;;
18316;SDS011;9284;52.298;21.164;2023-01-01T00:31:47;11.27;;;6.07;;
18316;SDS011;9284;52.298;21.164;2023-01-01T00:34:16;11.75;;;6.63;;
18316;SDS011;9284;52.298;21.164;2023-01-01T00:36:51;11.07;;;6.65;;
18316;SDS011;9284;52.298;21.164;2023-01-01T00:39:19;12.07;;;5.88;;
18316;SDS011;9284;52.298;21.164;2023-01-01T00:41:48;9.05;;;4.70;;
18316;SDS011;9284;52.298;21.164;2023-01-01T00:44:16;9.65;;;5.65;;
18316;SDS011;9284;52.298;21.164;2023-01-01T00:46:45;8.10;;;4.63;;
18316;SDS011;9284;52.298;21.164;2023-01-01T00:49:15;7.85;;;4.25;;
18316;SDS011;9284;52.298;21.164;2023-01-01T00:51:43;8.43;;;4.43;;
18316;SDS011;9284;52.298;21.164;2023-01-01T00:54:20;8.38;;;3.90;;
18316;SDS011;9284;52.298;21.164;2023-01-01T00:56:50;8.82;;;3.92;;
18316;SDS011;9284;52.298;21.164;2023-01-01T00:59:23;7.10;;;4.13;;
18316;SDS011;9284;52.298;21.164;2023-01-01T01:01:56;5.72;;;3.63;;
18316;SDS011;9284;52.298;21.164;2023-01-01T01:04:31;6.65;;;3.40;;
18316;SDS011;9284;52.298;21.164;2023-01-01T01:07:02;5.90;;;3.70;;
18316;SDS011;9284;52.298;21.164;2023-01-01T01:09:31;6.00;;;3.58;;
18316;SDS011;9284;52.298;21.164;2023-01-01T01:12:00;5.95;;;3.85;;
18316;SDS011;9284;52.298;21.164;2023-01-01T01:14:44;6.57;;;3.67;;
18316;SDS011;9284;52.298;21.164;2023-01-01T01:17:16;5.85;;;3.28;;
18316;SDS011;9284;52.298;21.164;2023-01-01T01:19:47;5.85;;;3.35;;
18316;SDS011;9284;52.298;21.164;2023-01-01T01:22:16;6.32;;;3.85;;
18316;SDS011;9284;52.298;21.164;2023-01-01T01:24:54;5.57;;;3.60;;
18316;SDS011;9284;52.298;21.164;2023-01-01T01:27:30;6.25;;;3.58;;
18316;SDS011;9284;52.298;21.164;2023-01-01T01:29:59;7.05;;;3.40;;
18316;SDS011;9284;52.298;21.164;2023-01-01T01:32:34;6.93;;;3.72;;
18316;SDS011;9284;52.298;21.164;2023-01-01T01:35:05;7.30;;;3.75;;
18316;SDS011;9284;52.298;21.164;2023-01-01T01:37:34;7.72;;;3.72;;
18316;SDS011;9284;52.298;21.164;2023-01-01T01:40:07;8.30;;;3.60;;
18316;SDS011;9284;52.298;21.164;2023-01-01T01:42:38;5.45;;;3.13;;
18316;SDS011;9284;52.298;21.164;2023-01-01T01:45:12;6.47;;;3.40;;
18316;SDS011;9284;52.298;21.164;2023-01-01T01:47:43;6.55;;;3.20;;
18316;SDS011;9284;52.298;21.164;2023-01-01T01:50:19;7.05;;;3.95;;
18316;SDS011;9284;52.298;21.164;2023-01-01T01:52:58;7.78;;;3.72;;
18316;SDS011;9284;52.298;21.164;2023-01-01T01:55:31;6.22;;;3.55;;
18316;SDS011;9284;52.298;21.164;2023-01-01T01:58:09;9.82;;;4.38;;
18316;SDS011;9284;52.298;21.164;2023-01-01T02:00:39;8.77;;;3.90;;
18316;SDS011;9284;52.298;21.164;2023-01-01T02:03:10;6.47;;;3.88;;
18316;SDS011;9284;52.298;21.164;2023-01-01T02:05:44;8.35;;;4.03;;
18316;SDS011;9284;52.298;21.164;2023-01-01T02:08:17;7.63;;;4.10;;
18316;SDS011;9284;52.298;21.164;2023-01-01T02:10:49;6.47;;;3.97;;
18316;SDS011;9284;52.298;21.164;2023-01-01T02:13:19;10.93;;;4.07;;
18316;SDS011;9284;52.298;21.164;2023-01-01T02:15:56;7.25;;;3.95;;
18316;SDS011;9284;52.298;21.164;2023-01-01T02:18:32;8.25;;;4.00;;
18316;SDS011;9284;52.298;21.164;2023-01-01T02:21:11;7.60;;;3.70;;
18316;SDS011;9284;52.298;21.164;2023-01-01T02:26:48;7.68;;;4.00;;
18316;SDS011;9284;52.298;21.164;2023-01-01T02:29:36;6.75;;;3.80;;
18316;SDS011;9284;52.298;21.164;2023-01-01T02:32:11;6.75;;;3.78;;
18316;SDS011;9284;52.298;21.164;2023-01-01T02:34:43;6.45;;;3.40;;
18316;SDS011;9284;52.298;21.164;2023-01-01T02:37:19;8.10;;;3.97;;
18316;SDS011;9284;52.298;21.164;2023-01-01T02:40:02;6.20;;;3.55;;
18316;SDS011;9284;52.298;21.164;2023-01-01T02:42:34;5.80;;;3.50;;
18316;SDS011;9284;52.298;21.164;2023-01-01T02:45:06;8.07;;;4.03;;
18316;SDS011;9284;52.298;21.164;2023-01-01T02:47:39;6.30;;;3.72;;
18316;SDS011;9284;52.298;21.164;2023-01-01T02:50:11;7.18;;;3.80;;
18316;SDS011;9284;52.298;21.164;2023-01-01T02:52:51;7.30;;;4.57;;
18316;SDS011;9284;52.298;21.164;2023-01-01T02:55:38;8.05;;;4.07;;
18316;SDS011;9284;52.298;21.164;2023-01-01T02:58:22;8.38;;;3.80;;
18316;SDS011;9284;52.298;21.164;2023-01-01T03:01:17;6.85;;;3.78;;
18316;SDS011;9284;52.298;21.164;2023-01-01T03:04:00;6.13;;;3.80;;
18316;SDS011;9284;52.298;21.164;2023-01-01T03:06:50;4.55;;;3.05;;
18316;SDS011;9284;52.298;21.164;2023-01-01T03:09:26;6.25;;;3.42;;
18316;SDS011;9284;52.298;21.164;2023-01-01T03:12:08;6.63;;;3.42;;
18316;SDS011;9284;52.298;21.164;2023-01-01T03:14:49;15.68;;;3.65;;
18316;SDS011;9284;52.298;21.164;2023-01-01T03:17:26;5.80;;;3.53;;
18316;SDS011;9284;52.298;21.164;2023-01-01T03:20:02;4.40;;;3.13;;
18316;SDS011;9284;52.298;21.164;2023-01-01T03:22:37;6.35;;;3.38;;
18316;SDS011;9284;52.298;21.164;2023-01-01T03:25:07;7.57;;;3.03;;
18316;SDS011;9284;52.298;21.164;2023-01-01T03:27:41;5.60;;;3.40;;
18316;SDS011;9284;52.298;21.164;2023-01-01T03:30:23;5.38;;;2.90;;
18316;SDS011;9284;52.298;21.164;2023-01-01T03:32:55;4.60;;;2.90;;
18316;SDS011;9284;52.298;21.164;2023-01-01T03:35:31;5.30;;;2.90;;
18316;SDS011;9284;52.298;21.164;2023-01-01T03:38:06;7.13;;;3.45;;
18316;SDS011;9284;52.298;21.164;2023-01-01T03:40:44;5.97;;;2.83;;
18316;SDS011;9284;52.298;21.164;2023-01-01T03:43:20;7.22;;;3.28;;
18316;SDS011;9284;52.298;21.164;2023-01-01T03:45:59;7.72;;;3.20;;
18316;SDS011;9284;52.298;21.164;2023-01-01T03:48:41;4.07;;;2.78;;
18316;SDS011;9284;52.298;21.164;2023-01-01T03:51:35;6.63;;;2.92;;
18316;SDS011;9284;52.298;21.164;2023-01-01T03:54:17;4.03;;;2.92;;
18316;SDS011;9284;52.298;21.164;2023-01-01T03:56:56;5.63;;;2.90;;
18316;SDS011;9284;52.298;21.164;2023-01-01T03:59:39;7.63;;;3.22;;
18316;SDS011;9284;52.298;21.164;2023-01-01T04:02:26;4.88;;;2.60;;
18316;SDS011;9284;52.298;21.164;2023-01-01T04:05:14;5.03;;;2.92;;
18316;SDS011;9284;52.298;21.164;2023-01-01T04:07:46;4.40;;;2.67;;
18316;SDS011;9284;52.298;21.164;2023-01-01T04:10:15;6.32;;;3.08;;
18316;SDS011;9284;52.298;21.164;2023-01-01T04:12:47;6.88;;;3.13;;
18316;SDS011;9284;52.298;21.164;2023-01-01T04:15:19;5.25;;;2.83;;
18316;SDS011;9284;52.298;21.164;2023-01-01T04:17:50;5.07;;;3.00;;
18316;SDS011;9284;52.298;21.164;2023-01-01T04:20:22;3.95;;;2.97;;
18316;SDS011;9284;52.298;21.164;2023-01-01T04:22:54;4.00;;;2.47;;
18316;SDS011;9284;52.298;21.164;2023-01-01T04:25:23;5.05;;;2.63;;
18316;SDS011;9284;52.298;21.164;2023-01-01T04:27:52;4.85;;;2.80;;
18316;SDS011;9284;52.298;21.164;2023-01-01T04:30:26;5.10;;;3.08;;
18316;SDS011;9284;52.298;21.164;2023-01-01T04:32:57;4.60;;;3.05;;
18316;SDS011;9284;52.298;21.164;2023-01-01T04:35:31;4.78;;;2.75;;
18316;SDS011;9284;52.298;21.164;2023-01-01T04:38:02;4.13;;;2.42;;
18316;SDS011;9284;52.298;21.164;2023-01-01T04:40:34;4.93;;;3.00;;
18316;SDS011;9284;52.298;21.164;2023-01-01T04:43:05;4.93;;;2.88;;
18316;SDS011;9284;52.298;21.164;2023-01-01T04:45:36;6.35;;;2.70;;
18316;SDS011;9284;52.298;21.164;2023-01-01T04:48:08;4.90;;;2.80;;
18316;SDS011;9284;52.298;21.164;2023-01-01T04:50:38;5.18;;;2.75;;
18316;SDS011;9284;52.298;21.164;2023-01-01T04:53:12;4.80;;;2.60;;
18316;SDS011;9284;52.298;21.164;2023-01-01T04:55:43;5.30;;;3.03;;
18316;SDS011;9284;52.298;21.164;2023-01-01T04:58:12;5.43;;;3.00;;
18316;SDS011;9284;52.298;21.164;2023-01-01T05:00:45;4.20;;;2.60;;
18316;SDS011;9284;52.298;21.164;2023-01-01T05:03:15;9.35;;;2.92;;
18316;SDS011;9284;52.298;21.164;2023-01-01T05:06:04;5.32;;;2.60;;
18316;SDS011;9284;52.298;21.164;2023-01-01T05:08:35;4.35;;;2.90;;
18316;SDS011;9284;52.298;21.164;2023-01-01T05:11:08;4.40;;;2.67;;
18316;SDS011;9284;52.298;21.164;2023-01-01T05:13:43;4.60;;;2.78;;
18316;SDS011;9284;52.298;21.164;2023-01-01T05:16:18;4.60;;;2.72;;
18316;SDS011;9284;52.298;21.164;2023-01-01T05:18:49;6.32;;;3.13;;
18316;SDS011;9284;52.298;21.164;2023-01-01T05:21:20;4.50;;;2.45;;
18316;SDS011;9284;52.298;21.164;2023-01-01T05:23:52;5.60;;;2.70;;
18316;SDS011;9284;52.298;21.164;2023-01-01T05:26:25;5.15;;;2.75;;
18316;SDS011;9284;52.298;21.164;2023-01-01T05:28:58;5.57;;;2.65;;
18316;SDS011;9284;52.298;21.164;2023-01-01T05:31:44;6.15;;;3.13;;
18316;SDS011;9284;52.298;21.164;2023-01-01T05:34:13;7.53;;;2.85;;
18316;SDS011;9284;52.298;21.164;2023-01-01T05:36:43;5.03;;;2.67;;
18316;SDS011;9284;52.298;21.164;2023-01-01T05:39:12;5.47;;;3.03;;
18316;SDS011;9284;52.298;21.164;2023-01-01T05:41:42;4.00;;;2.25;;
18316;SDS011;9284;52.298;21.164;2023-01-01T05:44:11;4.10;;;2.50;;
18316;SDS011;9284;52.298;21.164;2023-01-01T05:46:42;5.07;;;2.70;;
18316;SDS011;9284;52.298;21.164;2023-01-01T05:49:11;4.72;;;2.63;;
18316;SDS011;9284;52.298;21.164;2023-01-01T05:51:40;6.38;;;2.50;;
18316;SDS011;9284;52.298;21.164;2023-01-01T05:54:10;7.13;;;2.67;;
18316;SDS011;9284;52.298;21.164;2023-01-01T05:56:38;4.95;;;3.00;;
18316;SDS011;9284;52.298;21.164;2023-01-01T05:59:08;5.50;;;2.70;;
18316;SDS011;9284;52.298;21.164;2023-01-01T06:01:40;5.32;;;2.90;;
18316;SDS011;9284;52.298;21.164;2023-01-01T06:04:11;4.28;;;2.42;;
18316;SDS011;9284;52.298;21.164;2023-01-01T06:06:40;5.25;;;2.38;;
18316;SDS011;9284;52.298;21.164;2023-01-01T06:09:11;4.65;;;2.70;;
18316;SDS011;9284;52.298;21.164;2023-01-01T06:11:41;8.82;;;3.30;;
18316;SDS011;9284;52.298;21.164;2023-01-01T06:14:12;4.78;;;2.00;;
18316;SDS011;9284;52.298;21.164;2023-01-01T06:16:45;5.53;;;2.50;;
18316;SDS011;9284;52.298;21.164;2023-01-01T06:19:15;4.53;;;2.50;;
18316;SDS011;9284;52.298;21.164;2023-01-01T06:21:55;4.85;;;2.45;;
18316;SDS011;9284;52.298;21.164;2023-01-01T06:24:26;7.60;;;2.92;;
18316;SDS011;9284;52.298;21.164;2023-01-01T06:27:02;4.78;;;2.75;;
18316;SDS011;9284;52.298;21.164;2023-01-01T06:29:34;4.65;;;2.42;;
18316;SDS011;9284;52.298;21.164;2023-01-01T06:32:05;6.72;;;3.00;;
18316;SDS011;9284;52.298;21.164;2023-01-01T06:34:33;4.68;;;2.55;;
18316;SDS011;9284;52.298;21.164;2023-01-01T06:37:02;5.25;;;2.53;;
18316;SDS011;9284;52.298;21.164;2023-01-01T06:39:36;5.75;;;2.85;;
18316;SDS011;9284;52.298;21.164;2023-01-01T06:42:08;7.15;;;2.83;;
18316;SDS011;9284;52.298;21.164;2023-01-01T06:44:41;5.00;;;2.65;;
18316;SDS011;9284;52.298;21.164;2023-01-01T06:47:09;5.57;;;2.47;;
18316;SDS011;9284;52.298;21.164;2023-01-01T06:49:38;7.70;;;2.67;;
18316;SDS011;9284;52.298;21.164;2023-01-01T06:52:08;6.63;;;2.70;;
18316;SDS011;9284;52.298;21.164;2023-01-01T06:54:42;5.13;;;2.85;;
18316;SDS011;9284;52.298;21.164;2023-01-01T06:57:13;6.57;;;2.88;;
18316;SDS011;9284;52.298;21.164;2023-01-01T06:59:44;5.97;;;3.13;;
18316;SDS011;9284;52.298;21.164;2023-01-01T07:02:17;6.70;;;2.28;;
18316;SDS011;9284;52.298;21.164;2023-01-01T07:04:50;4.95;;;2.50;;
18316;SDS011;9284;52.298;21.164;2023-01-01T07:07:21;4.50;;;2.35;;
18316;SDS011;9284;52.298;21.164;2023-01-01T07:10:03;7.78;;;3.15;;
18316;SDS011;9284;52.298;21.164;2023-01-01T07:12:33;9.30;;;2.58;;
18316;SDS011;9284;52.298;21.164;2023-01-01T07:15:02;6.72;;;2.60;;
18316;SDS011;9284;52.298;21.164;2023-01-01T07:17:33;6.88;;;3.20;;
18316;SDS011;9284;52.298;21.164;2023-01-01T07:20:02;5.70;;;2.67;;
18316;SDS011;9284;52.298;21.164;2023-01-01T07:22:34;3.90;;;2.55;;
18316;SDS011;9284;52.298;21.164;2023-01-01T07:25:11;5.60;;;2.70;;
18316;SDS011;9284;52.298;21.164;2023-01-01T07:27:43;7.97;;;3.15;;
18316;SDS011;9284;52.298;21.164;2023-01-01T07:30:11;7.80;;;2.70;;
18316;SDS011;9284;52.298;21.164;2023-01-01T07:32:48;5.20;;;2.55;;
18316;SDS011;9284;52.298;21.164;2023-01-01T07:35:24;6.68;;;2.58;;
18316;SDS011;9284;52.298;21.164;2023-01-01T07:37:55;3.72;;;2.47;;
18316;SDS011;9284;52.298;21.164;2023-01-01T07:40:25;4.20;;;2.30;;
18316;SDS011;9284;52.298;21.164;2023-01-01T07:43:01;4.50;;;2.45;;
18316;SDS011;9284;52.298;21.164;2023-01-01T07:45:31;5.47;;;2.70;;
18316;SDS011;9284;52.298;21.164;2023-01-01T07:48:00;6.18;;;2.78;;
18316;SDS011;9284;52.298;21.164;2023-01-01T07:50:32;3.75;;;2.47;;
18316;SDS011;9284;52.298;21.164;2023-01-01T07:53:04;7.00;;;2.70;;
18316;SDS011;9284;52.298;21.164;2023-01-01T07:55:42;5.50;;;3.20;;
18316;SDS011;9284;52.298;21.164;2023-01-01T07:58:18;5.93;;;2.70;;
18316;SDS011;9284;52.298;21.164;2023-01-01T08:01:33;7.22;;;2.47;;
18316;SDS011;9284;52.298;21.164;2023-01-01T08:04:11;5.40;;;2.72;;
18316;SDS011;9284;52.298;21.164;2023-01-01T08:07:24;6.82;;;2.97;;
18316;SDS011;9284;52.298;21.164;2023-01-01T08:10:04;12.48;;;5.40;;
18316;SDS011;9284;52.298;21.164;2023-01-01T08:13:22;8.68;;;4.03;;
18316;SDS011;9284;52.298;21.164;2023-01-01T08:16:06;11.20;;;3.22;;
18316;SDS011;9284;52.298;21.164;2023-01-01T08:18:49;8.30;;;2.75;;
18316;SDS011;9284;52.298;21.164;2023-01-01T08:21:39;9.05;;;3.17;;
18316;SDS011;9284;52.298;21.164;2023-01-01T08:24:10;7.45;;;2.80;;
18316;SDS011;9284;52.298;21.164;2023-01-01T08:27:03;6.90;;;2.67;;
18316;SDS011;9284;52.298;21.164;2023-01-01T08:29:42;7.18;;;2.63;;
18316;SDS011;9284;52.298;21.164;2023-01-01T08:32:12;7.28;;;3.00;;
18316;SDS011;9284;52.298;21.164;2023-01-01T08:34:43;7.38;;;3.42;;
18316;SDS011;9284;52.298;21.164;2023-01-01T08:37:38;10.40;;;3.30;;
18316;SDS011;9284;52.298;21.164;2023-01-01T08:40:12;7.53;;;3.08;;
18316;SDS011;9284;52.298;21.164;2023-01-01T08:42:42;8.20;;;2.92;;
18316;SDS011;9284;52.298;21.164;2023-01-01T08:45:18;9.07;;;3.28;;
18316;SDS011;9284;52.298;21.164;2023-01-01T08:47:54;7.47;;;3.30;;
18316;SDS011;9284;52.298;21.164;2023-01-01T08:50:27;8.30;;;3.00;;
18316;SDS011;9284;52.298;21.164;2023-01-01T08:52:58;8.57;;;3.17;;
18316;SDS011;9284;52.298;21.164;2023-01-01T08:55:28;7.75;;;2.95;;
18316;SDS011;9284;52.298;21.164;2023-01-01T08:58:01;9.70;;;2.72;;
18316;SDS011;9284;52.298;21.164;2023-01-01T09:00:37;7.50;;;2.65;;
18316;SDS011;9284;52.298;21.164;2023-01-01T09:03:11;6.05;;;3.03;;
18316;SDS011;9284;52.298;21.164;2023-01-01T09:05:40;9.95;;;3.30;;
18316;SDS011;9284;52.298;21.164;2023-01-01T09:08:11;7.20;;;2.80;;
18316;SDS011;9284;52.298;21.164;2023-01-01T09:10:50;8.52;;;3.13;;
18316;SDS011;9284;52.298;21.164;2023-01-01T09:13:20;7.45;;;3.50;;
18316;SDS011;9284;52.298;21.164;2023-01-01T09:15:52;8.32;;;3.10;;
18316;SDS011;9284;52.298;21.164;2023-01-01T09:18:26;6.95;;;2.88;;
18316;SDS011;9284;52.298;21.164;2023-01-01T09:20:58;7.00;;;3.28;;
18316;SDS011;9284;52.298;21.164;2023-01-01T09:23:27;9.48;;;2.97;;
18316;SDS011;9284;52.298;21.164;2023-01-01T09:26:01;6.45;;;2.40;;
18316;SDS011;9284;52.298;21.164;2023-01-01T09:28:37;6.00;;;2.55;;
18316;SDS011;9284;52.298;21.164;2023-01-01T09:31:09;7.38;;;3.03;;
18316;SDS011;9284;52.298;21.164;2023-01-01T09:33:56;10.20;;;2.90;;
18316;SDS011;9284;52.298;21.164;2023-01-01T09:36:30;6.10;;;2.80;;
18316;SDS011;9284;52.298;21.164;2023-01-01T09:39:08;7.55;;;2.78;;
18316;SDS011;9284;52.298;21.164;2023-01-01T09:41:56;5.93;;;2.22;;
18316;SDS011;9284;52.298;21.164;2023-01-01T09:45:02;7.88;;;2.90;;
18316;SDS011;9284;52.298;21.164;2023-01-01T09:47:59;9.75;;;2.63;;
18316;SDS011;9284;52.298;21.164;2023-01-01T09:50:59;8.18;;;2.90;;
18316;SDS011;9284;52.298;21.164;2023-01-01T09:53:36;7.88;;;2.88;;
18316;SDS011;9284;52.298;21.164;2023-01-01T09:56:27;7.40;;;3.00;;
18316;SDS011;9284;52.298;21.164;2023-01-01T09:59:03;9.93;;;2.70;;
18316;SDS011;9284;52.298;21.164;2023-01-01T10:01:39;10.35;;;3.08;;
18316;SDS011;9284;52.298;21.164;2023-01-01T10:04:53;7.53;;;2.72;;
18316;SDS011;9284;52.298;21.164;2023-01-01T10:07:28;6.50;;;2.53;;
18316;SDS011;9284;52.298;21.164;2023-01-01T10:10:08;5.85;;;2.67;;
18316;SDS011;9284;52.298;21.164;2023-01-01T10:12:51;9.48;;;2.75;;
18316;SDS011;9284;52.298;21.164;2023-01-01T10:15:28;8.57;;;2.90;;
18316;SDS011;9284;52.298;21.164;2023-01-01T10:18:13;9.57;;;3.05;;
18316;SDS011;9284;52.298;21.164;2023-01-01T10:21:12;7.35;;;2.63;;
18316;SDS011;9284;52.298;21.164;2023-01-01T10:23:46;7.40;;;3.08;;
18316;SDS011;9284;52.298;21.164;2023-01-01T10:26:29;10.15;;;2.78;;
18316;SDS011;9284;52.298;21.164;2023-01-01T10:29:18;8.85;;;2.72;;
18316;SDS011;9284;52.298;21.164;2023-01-01T10:31:57;6.97;;;2.70;;
18316;SDS011;9284;52.298;21.164;2023-01-01T10:34:34;10.30;;;2.70;;
18316;SDS011;9284;52.298;21.164;2023-01-01T10:37:18;7.55;;;2.53;;
18316;SDS011;9284;52.298;21.164;2023-01-01T10:40:14;10.45;;;2.90;;
18316;SDS011;9284;52.298;21.164;2023-01-01T10:42:49;10.68;;;2.55;;
18316;SDS011;9284;52.298;21.164;2023-01-01T10:45:30;9.20;;;3.17;;
18316;SDS011;9284;52.298;21.164;2023-01-01T10:48:19;9.35;;;2.40;;
18316;SDS011;9284;52.298;21.164;2023-01-01T10:51:03;9.50;;;2.50;;
18316;SDS011;9284;52.298;21.164;2023-01-01T10:53:39;10.90;;;2.60;;
18316;SDS011;9284;52.298;21.164;2023-01-01T10:56:27;8.15;;;3.15;;
18316;SDS011;9284;52.298;21.164;2023-01-01T10:59:33;5.30;;;2.47;;
18316;SDS011;9284;52.298;21.164;2023-01-01T11:02:26;7.57;;;2.70;;
18316;SDS011;9284;52.298;21.164;2023-01-01T11:05:11;7.38;;;2.20;;
18316;SDS011;9284;52.298;21.164;2023-01-01T11:07:48;9.40;;;2.38;;
18316;SDS011;9284;52.298;21.164;2023-01-01T11:10:24;12.13;;;2.92;;
18316;SDS011;9284;52.298;21.164;2023-01-01T11:13:13;7.95;;;2.67;;
18316;SDS011;9284;52.298;21.164;2023-01-01T11:15:47;6.90;;;2.88;;
18316;SDS011;9284;52.298;21.164;2023-01-01T11:18:19;8.13;;;2.42;;
18316;SDS011;9284;52.298;21.164;2023-01-01T11:21:23;12.98;;;3.38;;
18316;SDS011;9284;52.298;21.164;2023-01-01T11:24:15;8.68;;;2.83;;
18316;SDS011;9284;52.298;21.164;2023-01-01T11:26:50;11.38;;;2.78;;
18316;SDS011;9284;52.298;21.164;2023-01-01T11:29:31;15.15;;;3.20;;
18316;SDS011;9284;52.298;21.164;2023-01-01T11:32:06;11.50;;;2.60;;
18316;SDS011;9284;52.298;21.164;2023-01-01T11:34:39;11.27;;;3.33;;
18316;SDS011;9284;52.298;21.164;2023-01-01T11:37:18;8.85;;;2.85;;
18316;SDS011;9284;52.298;21.164;2023-01-01T11:39:56;9.55;;;3.15;;
18316;SDS011;9284;52.298;21.164;2023-01-01T11:42:30;13.38;;;2.58;;
18316;SDS011;9284;52.298;21.164;2023-01-01T11:45:05;8.98;;;2.85;;
18316;SDS011;9284;52.298;21.164;2023-01-01T11:47:49;7.80;;;2.80;;
18316;SDS011;9284;52.298;21.164;2023-01-01T11:50:22;9.35;;;3.75;;
18316;SDS011;9284;52.298;21.164;2023-01-01T11:52:54;9.15;;;3.00;;
18316;SDS011;9284;52.298;21.164;2023-01-01T11:55:28;11.73;;;3.75;;
18316;SDS011;9284;52.298;21.164;2023-01-01T11:58:08;9.23;;;3.42;;
18316;SDS011;9284;52.298;21.164;2023-01-01T12:00:46;11.95;;;3.50;;
18316;SDS011;9284;52.298;21.164;2023-01-01T12:03:21;8.23;;;2.72;;
18316;SDS011;9284;52.298;21.164;2023-01-01T12:06:03;9.80;;;3.03;;
18316;SDS011;9284;52.298;21.164;2023-01-01T12:08:45;7.60;;;2.25;;
18316;SDS011;9284;52.298;21.164;2023-01-01T12:11:30;10.10;;;2.78;;
18316;SDS011;9284;52.298;21.164;2023-01-01T12:14:12;12.48;;;2.83;;
18316;SDS011;9284;52.298;21.164;2023-01-01T12:16:51;10.13;;;2.75;;
18316;SDS011;9284;52.298;21.164;2023-01-01T12:19:33;12.73;;;3.22;;
18316;SDS011;9284;52.298;21.164;2023-01-01T12:22:17;10.77;;;3.25;;
18316;SDS011;9284;52.298;21.164;2023-01-01T12:24:54;12.50;;;2.80;;
18316;SDS011;9284;52.298;21.164;2023-01-01T12:27:39;6.63;;;2.88;;
18316;SDS011;9284;52.298;21.164;2023-01-01T12:30:20;7.00;;;2.40;;
18316;SDS011;9284;52.298;21.164;2023-01-01T12:32:55;6.80;;;2.30;;
18316;SDS011;9284;52.298;21.164;2023-01-01T12:35:45;6.80;;;2.40;;
18316;SDS011;9284;52.298;21.164;2023-01-01T12:38:40;6.30;;;2.70;;
18316;SDS011;9284;52.298;21.164;2023-01-01T12:41:29;8.88;;;2.90;;
18316;SDS011;9284;52.298;21.164;2023-01-01T12:44:29;10.73;;;2.80;;
18316;SDS011;9284;52.298;21.164;2023-01-01T12:47:06;8.75;;;2.65;;
18316;SDS011;9284;52.298;21.164;2023-01-01T12:49:56;6.53;;;2.75;;
18316;SDS011;9284;52.298;21.164;2023-01-01T12:52:39;8.65;;;3.03;;
18316;SDS011;9284;52.298;21.164;2023-01-01T12:55:31;8.20;;;2.88;;
18316;SDS011;9284;52.298;21.164;2023-01-01T12:58:15;8.40;;;2.75;;
18316;SDS011;9284;52.298;21.164;2023-01-01T13:00:52;8.93;;;2.97;;
18316;SDS011;9284;52.298;21.164;2023-01-01T13:03:29;8.07;;;2.70;;
18316;SDS011;9284;52.298;21.164;2023-01-01T13:06:14;10.45;;;3.70;;
18316;SDS011;9284;52.298;21.164;2023-01-01T13:08:56;10.15;;;2.63;;
18316;SDS011;9284;52.298;21.164;2023-01-01T13:11:34;9.63;;;3.00;;
18316;SDS011;9284;52.298;21.164;2023-01-01T13:14:13;8.73;;;3.72;;
18316;SDS011;9284;52.298;21.164;2023-01-01T13:16:49;6.65;;;3.17;;
18316;SDS011;9284;52.298;21.164;2023-01-01T13:19:25;7.40;;;3.50;;
18316;SDS011;9284;52.298;21.164;2023-01-01T13:21:58;12.43;;;4.15;;
18316;SDS011;9284;52.298;21.164;2023-01-01T13:25:01;6.78;;;3.30;;
18316;SDS011;9284;52.298;21.164;2023-01-01T13:30:46;5.65;;;2.97;;
18316;SDS011;9284;52.298;21.164;2023-01-01T13:33:17;11.02;;;3.08;;
18316;SDS011;9284;52.298;21.164;2023-01-01T13:38:59;9.10;;;3.30;;
18316;SDS011;9284;52.298;21.164;2023-01-01T13:41:38;8.43;;;3.17;;
18316;SDS011;9284;52.298;21.164;2023-01-01T13:44:12;11.57;;;3.40;;
18316;SDS011;9284;52.298;21.164;2023-01-01T13:46:54;6.75;;;3.00;;
18316;SDS011;9284;52.298;21.164;2023-01-01T13:49:59;8.88;;;3.40;;
18316;SDS011;9284;52.298;21.164;2023-01-01T13:58:35;9.85;;;3.20;;
18316;SDS011;9284;52.298;21.164;2023-01-01T14:01:32;8.40;;;3.33;;
18316;SDS011;9284;52.298;21.164;2023-01-01T14:04:14;12.38;;;3.28;;
18316;SDS011;9284;52.298;21.164;2023-01-01T14:07:19;14.43;;;3.42;;
18316;SDS011;9284;52.298;21.164;2023-01-01T14:10:26;13.63;;;3.85;;
18316;SDS011;9284;52.298;21.164;2023-01-01T14:13:12;8.05;;;3.20;;
18316;SDS011;9284;52.298;21.164;2023-01-01T14:15:49;9.32;;;2.90;;
18316;SDS011;9284;52.298;21.164;2023-01-01T14:18:27;7.95;;;3.60;;
18316;SDS011;9284;52.298;21.164;2023-01-01T14:20:59;9.98;;;3.28;;
18316;SDS011;9284;52.298;21.164;2023-01-01T14:23:30;7.13;;;3.20;;
18316;SDS011;9284;52.298;21.164;2023-01-01T14:26:07;8.23;;;3.30;;
18316;SDS011;9284;52.298;21.164;2023-01-01T14:28:44;10.90;;;3.63;;
18316;SDS011;9284;52.298;21.164;2023-01-01T14:31:15;8.55;;;3.50;;
18316;SDS011;9284;52.298;21.164;2023-01-01T14:33:52;8.60;;;3.50;;
18316;SDS011;9284;52.298;21.164;2023-01-01T14:36:24;9.93;;;3.25;;
18316;SDS011;9284;52.298;21.164;2023-01-01T14:38:54;9.13;;;3.67;;
18316;SDS011;9284;52.298;21.164;2023-01-01T14:41:26;9.18;;;3.45;;
18316;SDS011;9284;52.298;21.164;2023-01-01T14:44:02;7.75;;;3.60;;
18316;SDS011;9284;52.298;21.164;2023-01-01T14:46:34;6.07;;;3.03;;
18316;SDS011;9284;52.298;21.164;2023-01-01T14:49:14;10.40;;;3.72;;
18316;SDS011;9284;52.298;21.164;2023-01-01T14:51:49;7.47;;;3.58;;
18316;SDS011;9284;52.298;21.164;2023-01-01T14:54:21;10.45;;;4.30;;
18316;SDS011;9284;52.298;21.164;2023-01-01T14:56:53;15.70;;;4.07;;
18316;SDS011;9284;52.298;21.164;2023-01-01T14:59:24;10.02;;;3.63;;
18316;SDS011;9284;52.298;21.164;2023-01-01T15:02:01;8.63;;;3.95;;
18316;SDS011;9284;52.298;21.164;2023-01-01T15:04:40;8.75;;;3.75;;
18316;SDS011;9284;52.298;21.164;2023-01-01T15:07:17;8.20;;;4.47;;
18316;SDS011;9284;52.298;21.164;2023-01-01T15:09:51;8.63;;;3.72;;
18316;SDS011;9284;52.298;21.164;2023-01-01T15:12:24;6.40;;;3.65;;
18316;SDS011;9284;52.298;21.164;2023-01-01T15:14:59;9.45;;;4.18;;
18316;SDS011;9284;52.298;21.164;2023-01-01T15:17:28;9.50;;;3.53;;
18316;SDS011;9284;52.298;21.164;2023-01-01T15:20:18;10.25;;;4.28;;
18316;SDS011;9284;52.298;21.164;2023-01-01T15:22:48;9.32;;;4.10;;
18316;SDS011;9284;52.298;21.164;2023-01-01T15:25:18;7.85;;;3.80;;
18316;SDS011;9284;52.298;21.164;2023-01-01T15:27:50;7.45;;;3.45;;
18316;SDS011;9284;52.298;21.164;2023-01-01T15:30:23;7.53;;;3.40;;
18316;SDS011;9284;52.298;21.164;2023-01-01T15:33:05;6.47;;;3.10;;
18316;SDS011;9284;52.298;21.164;2023-01-01T15:35:35;7.50;;;3.83;;
18316;SDS011;9284;52.298;21.164;2023-01-01T15:38:08;10.93;;;3.80;;
18316;SDS011;9284;52.298;21.164;2023-01-01T15:40:40;9.45;;;3.85;;
18316;SDS011;9284;52.298;21.164;2023-01-01T15:43:23;15.68;;;3.78;;
18316;SDS011;9284;52.298;21.164;2023-01-01T15:46:09;10.93;;;4.05;;
18316;SDS011;9284;52.298;21.164;2023-01-01T15:48:46;11.05;;;4.07;;
18316;SDS011;9284;52.298;21.164;2023-01-01T15:51:19;7.28;;;3.72;;
18316;SDS011;9284;52.298;21.164;2023-01-01T15:53:58;8.95;;;4.22;;
18316;SDS011;9284;52.298;21.164;2023-01-01T15:56:38;9.63;;;4.90;;
18316;SDS011;9284;52.298;21.164;2023-01-01T15:59:16;10.77;;;4.63;;